sensor_id;sensor_type;location;lat;lon;timestamp;temperature;humidity
33881;DHT22;20172;47.530;10.256;2023-05-07T00:01:55;14.10;99.90
33881;DHT22;20172;47.530;10.256;2023-05-07T00:04:21;14.10;99.90
33881;DHT22;20172;47.530;10.256;2023-05-07T00:06:46;14.10;99.90
33881;DHT22;20172;47.530;10.256;2023-05-07T00:09:12;14.10;99.90
33881;DHT22;20172;47.530;10.256;2023-05-07T00:11:38;14.10;99.90
33881;DHT22;20172;47.530;10.256;2023-05-07T00:14:03;14.10;99.90
33881;DHT22;20172;47.530;10.256;2023-05-07T00:16:29;14.20;99.90
33881;DHT22;20172;47.530;10.256;2023-05-07T00:18:54;14.10;99.90
33881;DHT22;20172;47.530;10.256;2023-05-07T00:21:20;14.10;99.90
33881;DHT22;20172;47.530;10.256;2023-05-07T00:23:46;14.20;99.90
33881;DHT22;20172;47.530;10.256;2023-05-07T00:26:12;14.20;99.90
33881;DHT22;20172;47.530;10.256;2023-05-07T00:28:37;14.20;99.90
33881;DHT22;20172;47.530;10.256;2023-05-07T00:31:03;14.20;99.90
33881;DHT22;20172;47.530;10.256;2023-05-07T00:33:29;14.20;99.90
33881;DHT22;20172;47.530;10.256;2023-05-07T00:35:54;14.10;99.90
33881;DHT22;20172;47.530;10.256;2023-05-07T00:38:20;14.10;99.90
33881;DHT22;20172;47.530;10.256;2023-05-07T00:40:45;13.90;99.90
33881;DHT22;20172;47.530;10.256;2023-05-07T00:43:11;13.90;99.90
33881;DHT22;20172;47.530;10.256;2023-05-07T00:45:37;13.90;99.90
33881;DHT22;20172;47.530;10.256;2023-05-07T00:48:03;13.90;99.90
33881;DHT22;20172;47.530;10.256;2023-05-07T00:50:28;13.90;99.90
33881;DHT22;20172;47.530;10.256;2023-05-07T00:52:55;13.90;99.90
33881;DHT22;20172;47.530;10.256;2023-05-07T00:55:21;13.80;99.90
33881;DHT22;20172;47.530;10.256;2023-05-07T00:57:47;13.80;99.90
33881;DHT22;20172;47.530;10.256;2023-05-07T01:00:12;13.70;99.90
33881;DHT22;20172;47.530;10.256;2023-05-07T01:02:39;13.70;99.90
33881;DHT22;20172;47.530;10.256;2023-05-07T01:05:05;13.60;99.90
33881;DHT22;20172;47.530;10.256;2023-05-07T01:07:31;13.70;99.90
33881;DHT22;20172;47.530;10.256;2023-05-07T01:09:57;13.70;99.90
33881;DHT22;20172;47.530;10.256;2023-05-07T01:12:23;13.60;99.90
33881;DHT22;20172;47.530;10.256;2023-05-07T01:14:49;13.50;99.90
33881;DHT22;20172;47.530;10.256;2023-05-07T01:17:16;13.40;99.90
33881;DHT22;20172;47.530;10.256;2023-05-07T01:19:41;13.40;99.90
33881;DHT22;20172;47.530;10.256;2023-05-07T01:22:08;13.30;99.90
33881;DHT22;20172;47.530;10.256;2023-05-07T01:24:33;13.30;99.90
33881;DHT22;20172;47.530;10.256;2023-05-07T01:27:00;13.20;99.90
33881;DHT22;20172;47.530;10.256;2023-05-07T01:29:26;13.20;99.90
33881;DHT22;20172;47.530;10.256;2023-05-07T01:31:52;13.00;99.90
33881;DHT22;20172;47.530;10.256;2023-05-07T01:34:18;13.00;99.90
33881;DHT22;20172;47.530;10.256;2023-05-07T01:36:45;12.80;99.90
33881;DHT22;20172;47.530;10.256;2023-05-07T01:39:11;12.80;99.90
33881;DHT22;20172;47.530;10.256;2023-05-07T01:41:37;12.80;99.90
33881;DHT22;20172;47.530;10.256;2023-05-07T01:44:03;12.80;99.90
33881;DHT22;20172;47.530;10.256;2023-05-07T01:46:29;12.80;99.90
33881;DHT22;20172;47.530;10.256;2023-05-07T01:48:56;12.90;99.90
33881;DHT22;20172;47.530;10.256;2023-05-07T01:51:22;12.90;99.90
33881;DHT22;20172;47.530;10.256;2023-05-07T01:53:47;13.00;99.90
33881;DHT22;20172;47.530;10.256;2023-05-07T01:56:18;13.00;99.90
33881;DHT22;20172;47.530;10.256;2023-05-07T01:58:45;12.90;99.90
33881;DHT22;20172;47.530;10.256;2023-05-07T02:01:14;12.90;99.90
33881;DHT22;20172;47.530;10.256;2023-05-07T02:03:39;13.00;99.90
33881;DHT22;20172;47.530;10.256;2023-05-07T02:06:05;12.90;99.90
33881;DHT22;20172;47.530;10.256;2023-05-07T02:08:31;12.90;99.90
33881;DHT22;20172;47.530;10.256;2023-05-07T02:10:56;12.90;99.90
33881;DHT22;20172;47.530;10.256;2023-05-07T02:13:22;12.90;99.90
33881;DHT22;20172;47.530;10.256;2023-05-07T02:15:49;12.90;99.90
33881;DHT22;20172;47.530;10.256;2023-05-07T02:18:15;12.90;99.90
33881;DHT22;20172;47.530;10.256;2023-05-07T02:20:41;13.00;99.90
33881;DHT22;20172;47.530;10.256;2023-05-07T02:23:07;13.10;99.90
33881;DHT22;20172;47.530;10.256;2023-05-07T02:25:32;13.10;99.90
33881;DHT22;20172;47.530;10.256;2023-05-07T02:27:58;13.10;99.90
33881;DHT22;20172;47.530;10.256;2023-05-07T02:30:24;13.00;99.90
33881;DHT22;20172;47.530;10.256;2023-05-07T02:32:50;13.00;99.90
33881;DHT22;20172;47.530;10.256;2023-05-07T02:35:16;13.00;99.90
33881;DHT22;20172;47.530;10.256;2023-05-07T02:37:44;13.10;99.90
33881;DHT22;20172;47.530;10.256;2023-05-07T02:40:10;13.00;99.90
33881;DHT22;20172;47.530;10.256;2023-05-07T02:42:36;13.00;99.90
33881;DHT22;20172;47.530;10.256;2023-05-07T02:45:01;12.90;99.90
33881;DHT22;20172;47.530;10.256;2023-05-07T02:47:27;12.90;99.90
33881;DHT22;20172;47.530;10.256;2023-05-07T02:49:54;12.90;99.90
33881;DHT22;20172;47.530;10.256;2023-05-07T02:52:20;12.90;99.90
33881;DHT22;20172;47.530;10.256;2023-05-07T02:54:45;12.90;99.90
33881;DHT22;20172;47.530;10.256;2023-05-07T02:57:11;12.80;99.90
33881;DHT22;20172;47.530;10.256;2023-05-07T02:59:36;12.80;99.90
33881;DHT22;20172;47.530;10.256;2023-05-07T03:02:02;12.80;99.90
33881;DHT22;20172;47.530;10.256;2023-05-07T03:04:27;12.70;99.90
33881;DHT22;20172;47.530;10.256;2023-05-07T03:06:53;12.60;99.90
33881;DHT22;20172;47.530;10.256;2023-05-07T03:09:18;12.60;99.90
33881;DHT22;20172;47.530;10.256;2023-05-07T03:11:44;12.60;99.90
33881;DHT22;20172;47.530;10.256;2023-05-07T03:14:10;12.60;99.90
33881;DHT22;20172;47.530;10.256;2023-05-07T03:16:35;12.60;99.90
33881;DHT22;20172;47.530;10.256;2023-05-07T03:19:01;12.50;99.90
33881;DHT22;20172;47.530;10.256;2023-05-07T03:21:26;12.40;99.90
33881;DHT22;20172;47.530;10.256;2023-05-07T03:23:52;12.40;99.90
33881;DHT22;20172;47.530;10.256;2023-05-07T03:26:18;12.40;99.90
33881;DHT22;20172;47.530;10.256;2023-05-07T03:28:44;12.40;99.90
33881;DHT22;20172;47.530;10.256;2023-05-07T03:31:09;12.30;99.90
33881;DHT22;20172;47.530;10.256;2023-05-07T03:33:35;12.30;99.90
33881;DHT22;20172;47.530;10.256;2023-05-07T03:36:00;12.30;99.90
33881;DHT22;20172;47.530;10.256;2023-05-07T03:38:26;12.30;99.90
33881;DHT22;20172;47.530;10.256;2023-05-07T03:40:51;12.30;99.90
33881;DHT22;20172;47.530;10.256;2023-05-07T03:43:17;12.30;99.90
33881;DHT22;20172;47.530;10.256;2023-05-07T03:45:43;12.40;99.90
33881;DHT22;20172;47.530;10.256;2023-05-07T03:48:08;12.40;99.90
33881;DHT22;20172;47.530;10.256;2023-05-07T03:50:34;12.30;99.90
33881;DHT22;20172;47.530;10.256;2023-05-07T03:52:59;12.20;99.90
33881;DHT22;20172;47.530;10.256;2023-05-07T03:55:25;12.00;99.90
33881;DHT22;20172;47.530;10.256;2023-05-07T03:57:50;12.00;99.90
33881;DHT22;20172;47.530;10.256;2023-05-07T04:00:16;11.90;99.90
33881;DHT22;20172;47.530;10.256;2023-05-07T04:02:41;11.90;99.90
33881;DHT22;20172;47.530;10.256;2023-05-07T04:05:07;11.90;99.90
33881;DHT22;20172;47.530;10.256;2023-05-07T04:07:33;11.90;99.90
33881;DHT22;20172;47.530;10.256;2023-05-07T04:09:59;11.90;99.90
33881;DHT22;20172;47.530;10.256;2023-05-07T04:12:24;11.90;99.90
33881;DHT22;20172;47.530;10.256;2023-05-07T04:14:50;11.90;99.90
33881;DHT22;20172;47.530;10.256;2023-05-07T04:17:15;11.90;99.90
33881;DHT22;20172;47.530;10.256;2023-05-07T04:19:41;11.80;99.90
33881;DHT22;20172;47.530;10.256;2023-05-07T04:22:10;11.80;99.90
33881;DHT22;20172;47.530;10.256;2023-05-07T04:24:36;11.80;99.90
33881;DHT22;20172;47.530;10.256;2023-05-07T04:27:01;11.80;99.90
33881;DHT22;20172;47.530;10.256;2023-05-07T04:29:27;11.80;99.90
33881;DHT22;20172;47.530;10.256;2023-05-07T04:31:53;11.90;99.90
33881;DHT22;20172;47.530;10.256;2023-05-07T04:34:21;11.90;99.90
33881;DHT22;20172;47.530;10.256;2023-05-07T04:36:47;11.90;99.90
33881;DHT22;20172;47.530;10.256;2023-05-07T04:39:13;12.00;99.90
33881;DHT22;20172;47.530;10.256;2023-05-07T04:41:38;12.00;99.90
33881;DHT22;20172;47.530;10.256;2023-05-07T04:44:04;12.10;99.90
33881;DHT22;20172;47.530;10.256;2023-05-07T04:46:30;12.00;99.90
33881;DHT22;20172;47.530;10.256;2023-05-07T04:48:55;12.10;99.90
33881;DHT22;20172;47.530;10.256;2023-05-07T04:51:21;12.10;99.90
33881;DHT22;20172;47.530;10.256;2023-05-07T04:53:47;12.10;99.90
33881;DHT22;20172;47.530;10.256;2023-05-07T04:56:12;12.10;99.90
33881;DHT22;20172;47.530;10.256;2023-05-07T04:58:38;12.20;99.90
33881;DHT22;20172;47.530;10.256;2023-05-07T05:01:03;12.20;99.90
33881;DHT22;20172;47.530;10.256;2023-05-07T05:03:30;12.20;99.90
33881;DHT22;20172;47.530;10.256;2023-05-07T05:05:55;12.10;99.90
33881;DHT22;20172;47.530;10.256;2023-05-07T05:08:22;12.10;99.90
33881;DHT22;20172;47.530;10.256;2023-05-07T05:10:47;12.10;99.90
33881;DHT22;20172;47.530;10.256;2023-05-07T05:13:15;12.20;99.90
33881;DHT22;20172;47.530;10.256;2023-05-07T05:15:40;12.40;99.90
33881;DHT22;20172;47.530;10.256;2023-05-07T05:18:06;12.50;99.90
33881;DHT22;20172;47.530;10.256;2023-05-07T05:20:31;12.60;99.90
33881;DHT22;20172;47.530;10.256;2023-05-07T05:22:57;12.70;99.90
33881;DHT22;20172;47.530;10.256;2023-05-07T05:25:22;12.90;99.90
33881;DHT22;20172;47.530;10.256;2023-05-07T05:27:48;13.00;99.90
33881;DHT22;20172;47.530;10.256;2023-05-07T05:30:13;13.10;99.90
33881;DHT22;20172;47.530;10.256;2023-05-07T05:32:39;13.20;99.90
33881;DHT22;20172;47.530;10.256;2023-05-07T05:35:05;13.20;99.90
33881;DHT22;20172;47.530;10.256;2023-05-07T05:37:30;13.30;99.90
33881;DHT22;20172;47.530;10.256;2023-05-07T05:39:56;13.40;99.90
33881;DHT22;20172;47.530;10.256;2023-05-07T05:42:23;13.40;99.90
33881;DHT22;20172;47.530;10.256;2023-05-07T05:44:48;13.40;99.90
33881;DHT22;20172;47.530;10.256;2023-05-07T05:47:14;13.40;99.90
33881;DHT22;20172;47.530;10.256;2023-05-07T05:49:39;13.50;99.90
33881;DHT22;20172;47.530;10.256;2023-05-07T05:52:05;13.50;99.90
33881;DHT22;20172;47.530;10.256;2023-05-07T05:54:31;13.60;99.90
33881;DHT22;20172;47.530;10.256;2023-05-07T05:56:56;13.80;99.90
33881;DHT22;20172;47.530;10.256;2023-05-07T05:59:22;13.90;99.90
33881;DHT22;20172;47.530;10.256;2023-05-07T06:01:48;14.00;99.90
33881;DHT22;20172;47.530;10.256;2023-05-07T06:04:13;14.10;99.90
33881;DHT22;20172;47.530;10.256;2023-05-07T06:06:39;14.10;99.90
33881;DHT22;20172;47.530;10.256;2023-05-07T06:09:05;14.20;99.90
33881;DHT22;20172;47.530;10.256;2023-05-07T06:11:31;14.20;99.90
33881;DHT22;20172;47.530;10.256;2023-05-07T06:13:56;14.20;99.90
33881;DHT22;20172;47.530;10.256;2023-05-07T06:16:22;14.30;99.90
33881;DHT22;20172;47.530;10.256;2023-05-07T06:18:47;14.40;99.90
33881;DHT22;20172;47.530;10.256;2023-05-07T06:21:13;14.50;99.90
33881;DHT22;20172;47.530;10.256;2023-05-07T06:23:39;14.60;99.90
33881;DHT22;20172;47.530;10.256;2023-05-07T06:26:06;14.80;99.90
33881;DHT22;20172;47.530;10.256;2023-05-07T06:28:32;14.90;99.90
33881;DHT22;20172;47.530;10.256;2023-05-07T06:31:10;15.10;99.90
33881;DHT22;20172;47.530;10.256;2023-05-07T06:33:36;15.20;99.90
33881;DHT22;20172;47.530;10.256;2023-05-07T06:36:01;15.40;99.90
33881;DHT22;20172;47.530;10.256;2023-05-07T06:38:27;15.60;99.90
33881;DHT22;20172;47.530;10.256;2023-05-07T06:40:52;15.70;99.90
33881;DHT22;20172;47.530;10.256;2023-05-07T06:43:20;15.90;99.90
33881;DHT22;20172;47.530;10.256;2023-05-07T06:45:46;16.00;99.90
33881;DHT22;20172;47.530;10.256;2023-05-07T06:48:11;16.10;99.90
33881;DHT22;20172;47.530;10.256;2023-05-07T06:50:37;16.20;99.90
33881;DHT22;20172;47.530;10.256;2023-05-07T06:53:02;16.30;99.90
33881;DHT22;20172;47.530;10.256;2023-05-07T06:55:28;16.50;99.90
33881;DHT22;20172;47.530;10.256;2023-05-07T06:57:54;16.60;99.90
33881;DHT22;20172;47.530;10.256;2023-05-07T07:00:19;16.80;99.90
33881;DHT22;20172;47.530;10.256;2023-05-07T07:02:45;16.90;99.90
33881;DHT22;20172;47.530;10.256;2023-05-07T07:05:10;17.00;99.90
33881;DHT22;20172;47.530;10.256;2023-05-07T07:07:36;17.00;99.90
33881;DHT22;20172;47.530;10.256;2023-05-07T07:10:02;17.10;99.90
33881;DHT22;20172;47.530;10.256;2023-05-07T07:12:29;17.20;99.90
33881;DHT22;20172;47.530;10.256;2023-05-07T07:14:55;17.30;99.90
33881;DHT22;20172;47.530;10.256;2023-05-07T07:17:20;17.50;99.90
33881;DHT22;20172;47.530;10.256;2023-05-07T07:19:46;17.70;99.90
33881;DHT22;20172;47.530;10.256;2023-05-07T07:22:11;17.80;99.90
33881;DHT22;20172;47.530;10.256;2023-05-07T07:24:37;17.90;99.90
33881;DHT22;20172;47.530;10.256;2023-05-07T07:27:02;18.00;99.90
33881;DHT22;20172;47.530;10.256;2023-05-07T07:29:28;18.10;99.90
33881;DHT22;20172;47.530;10.256;2023-05-07T07:31:53;18.20;99.90
33881;DHT22;20172;47.530;10.256;2023-05-07T07:34:19;18.30;99.90
33881;DHT22;20172;47.530;10.256;2023-05-07T07:36:44;18.50;99.90
33881;DHT22;20172;47.530;10.256;2023-05-07T07:39:10;18.70;99.90
33881;DHT22;20172;47.530;10.256;2023-05-07T07:41:35;18.70;99.90
33881;DHT22;20172;47.530;10.256;2023-05-07T07:44:02;18.90;99.90
33881;DHT22;20172;47.530;10.256;2023-05-07T07:46:29;19.00;99.90
33881;DHT22;20172;47.530;10.256;2023-05-07T07:48:54;19.00;99.90
33881;DHT22;20172;47.530;10.256;2023-05-07T07:51:20;19.20;99.90
33881;DHT22;20172;47.530;10.256;2023-05-07T07:53:46;19.20;99.90
33881;DHT22;20172;47.530;10.256;2023-05-07T07:56:11;19.30;99.90
33881;DHT22;20172;47.530;10.256;2023-05-07T07:58:37;19.40;99.90
33881;DHT22;20172;47.530;10.256;2023-05-07T08:01:03;19.50;99.90
33881;DHT22;20172;47.530;10.256;2023-05-07T08:03:28;19.60;99.90
33881;DHT22;20172;47.530;10.256;2023-05-07T08:05:57;19.70;99.90
33881;DHT22;20172;47.530;10.256;2023-05-07T08:08:22;19.90;99.90
33881;DHT22;20172;47.530;10.256;2023-05-07T08:10:48;20.10;99.90
33881;DHT22;20172;47.530;10.256;2023-05-07T08:13:15;20.30;99.90
33881;DHT22;20172;47.530;10.256;2023-05-07T08:15:41;20.40;99.90
33881;DHT22;20172;47.530;10.256;2023-05-07T08:18:06;20.60;99.90
33881;DHT22;20172;47.530;10.256;2023-05-07T08:20:32;20.60;99.90
33881;DHT22;20172;47.530;10.256;2023-05-07T08:22:58;20.70;99.90
33881;DHT22;20172;47.530;10.256;2023-05-07T08:25:24;20.80;99.90
33881;DHT22;20172;47.530;10.256;2023-05-07T08:27:49;20.90;99.90
33881;DHT22;20172;47.530;10.256;2023-05-07T08:30:15;21.00;99.90
33881;DHT22;20172;47.530;10.256;2023-05-07T08:32:40;21.00;99.90
33881;DHT22;20172;47.530;10.256;2023-05-07T08:35:06;21.10;99.90
33881;DHT22;20172;47.530;10.256;2023-05-07T08:37:32;21.20;99.90
33881;DHT22;20172;47.530;10.256;2023-05-07T08:39:57;21.30;99.90
33881;DHT22;20172;47.530;10.256;2023-05-07T08:42:23;21.40;99.90
33881;DHT22;20172;47.530;10.256;2023-05-07T08:44:49;21.50;99.90
33881;DHT22;20172;47.530;10.256;2023-05-07T08:47:18;21.60;99.90
33881;DHT22;20172;47.530;10.256;2023-05-07T08:49:43;21.80;99.90
33881;DHT22;20172;47.530;10.256;2023-05-07T08:52:09;21.90;99.90
33881;DHT22;20172;47.530;10.256;2023-05-07T08:54:36;22.00;99.90
33881;DHT22;20172;47.530;10.256;2023-05-07T08:57:02;22.10;99.90
33881;DHT22;20172;47.530;10.256;2023-05-07T08:59:28;22.10;99.90
33881;DHT22;20172;47.530;10.256;2023-05-07T09:01:53;22.20;99.90
33881;DHT22;20172;47.530;10.256;2023-05-07T09:04:19;22.30;99.90
33881;DHT22;20172;47.530;10.256;2023-05-07T09:06:45;22.30;99.90
33881;DHT22;20172;47.530;10.256;2023-05-07T09:09:10;22.50;99.90
33881;DHT22;20172;47.530;10.256;2023-05-07T09:11:39;22.60;99.90
33881;DHT22;20172;47.530;10.256;2023-05-07T09:14:05;22.70;99.90
33881;DHT22;20172;47.530;10.256;2023-05-07T09:16:30;22.80;99.90
33881;DHT22;20172;47.530;10.256;2023-05-07T09:18:57;23.00;99.90
33881;DHT22;20172;47.530;10.256;2023-05-07T09:21:23;23.10;99.90
33881;DHT22;20172;47.530;10.256;2023-05-07T09:23:50;23.20;99.90
33881;DHT22;20172;47.530;10.256;2023-05-07T09:26:16;23.30;99.90
33881;DHT22;20172;47.530;10.256;2023-05-07T09:28:41;23.50;99.90
33881;DHT22;20172;47.530;10.256;2023-05-07T09:31:08;23.50;99.90
33881;DHT22;20172;47.530;10.256;2023-05-07T09:33:33;23.70;99.90
33881;DHT22;20172;47.530;10.256;2023-05-07T09:36:06;23.80;99.90
33881;DHT22;20172;47.530;10.256;2023-05-07T09:38:33;23.90;99.90
33881;DHT22;20172;47.530;10.256;2023-05-07T09:41:02;23.90;99.90
33881;DHT22;20172;47.530;10.256;2023-05-07T09:43:31;24.00;99.90
33881;DHT22;20172;47.530;10.256;2023-05-07T09:45:57;24.10;99.90
33881;DHT22;20172;47.530;10.256;2023-05-07T09:48:23;24.00;99.90
33881;DHT22;20172;47.530;10.256;2023-05-07T09:50:51;24.10;99.90
33881;DHT22;20172;47.530;10.256;2023-05-07T09:53:17;24.00;99.90
33881;DHT22;20172;47.530;10.256;2023-05-07T09:55:43;24.10;99.90
33881;DHT22;20172;47.530;10.256;2023-05-07T09:58:08;24.20;99.90
33881;DHT22;20172;47.530;10.256;2023-05-07T10:00:34;24.30;99.90
33881;DHT22;20172;47.530;10.256;2023-05-07T10:03:00;24.30;99.90
33881;DHT22;20172;47.530;10.256;2023-05-07T10:05:26;24.40;99.90
33881;DHT22;20172;47.530;10.256;2023-05-07T10:07:52;24.60;99.90
33881;DHT22;20172;47.530;10.256;2023-05-07T10:10:18;24.60;99.90
33881;DHT22;20172;47.530;10.256;2023-05-07T10:12:43;24.70;99.90
33881;DHT22;20172;47.530;10.256;2023-05-07T10:15:10;24.80;99.90
33881;DHT22;20172;47.530;10.256;2023-05-07T10:17:36;24.80;99.90
33881;DHT22;20172;47.530;10.256;2023-05-07T10:20:02;24.90;99.90
33881;DHT22;20172;47.530;10.256;2023-05-07T10:22:30;25.00;99.90
33881;DHT22;20172;47.530;10.256;2023-05-07T10:24:58;25.00;99.90
33881;DHT22;20172;47.530;10.256;2023-05-07T10:27:24;25.10;99.70
33881;DHT22;20172;47.530;10.256;2023-05-07T10:29:53;25.10;99.10
33881;DHT22;20172;47.530;10.256;2023-05-07T10:32:30;25.10;98.80
33881;DHT22;20172;47.530;10.256;2023-05-07T10:34:59;25.00;98.50
33881;DHT22;20172;47.530;10.256;2023-05-07T10:37:25;24.90;97.40
33881;DHT22;20172;47.530;10.256;2023-05-07T10:39:51;24.80;98.40
33881;DHT22;20172;47.530;10.256;2023-05-07T10:42:17;24.80;98.60
33881;DHT22;20172;47.530;10.256;2023-05-07T10:44:43;24.70;99.30
33881;DHT22;20172;47.530;10.256;2023-05-07T10:50:19;24.50;98.10
33881;DHT22;20172;47.530;10.256;2023-05-07T10:52:23;24.50;98.50
33881;DHT22;20172;47.530;10.256;2023-05-07T10:57:35;24.50;98.20
33881;DHT22;20172;47.530;10.256;2023-05-07T11:00:01;24.60;98.60
33881;DHT22;20172;47.530;10.256;2023-05-07T11:03:09;24.70;98.90
33881;DHT22;20172;47.530;10.256;2023-05-07T11:05:22;24.80;98.90
33881;DHT22;20172;47.530;10.256;2023-05-07T11:07:54;25.00;98.20
33881;DHT22;20172;47.530;10.256;2023-05-07T11:10:20;25.20;97.90
33881;DHT22;20172;47.530;10.256;2023-05-07T11:12:49;25.30;97.60
33881;DHT22;20172;47.530;10.256;2023-05-07T11:15:33;25.50;96.90
33881;DHT22;20172;47.530;10.256;2023-05-07T11:17:59;25.60;96.30
33881;DHT22;20172;47.530;10.256;2023-05-07T11:25:57;25.80;95.20
33881;DHT22;20172;47.530;10.256;2023-05-07T11:28:23;25.70;95.00
33881;DHT22;20172;47.530;10.256;2023-05-07T11:30:49;25.80;94.50
33881;DHT22;20172;47.530;10.256;2023-05-07T11:33:16;25.70;94.20
33881;DHT22;20172;47.530;10.256;2023-05-07T11:35:42;25.80;94.10
33881;DHT22;20172;47.530;10.256;2023-05-07T11:38:08;25.80;94.90
33881;DHT22;20172;47.530;10.256;2023-05-07T11:40:33;25.90;93.50
33881;DHT22;20172;47.530;10.256;2023-05-07T11:42:59;25.90;93.20
33881;DHT22;20172;47.530;10.256;2023-05-07T11:45:35;26.00;93.50
33881;DHT22;20172;47.530;10.256;2023-05-07T11:48:01;26.10;93.80
33881;DHT22;20172;47.530;10.256;2023-05-07T11:50:27;26.30;92.90
33881;DHT22;20172;47.530;10.256;2023-05-07T11:52:52;26.50;92.50
33881;DHT22;20172;47.530;10.256;2023-05-07T11:55:18;26.60;91.70
33881;DHT22;20172;47.530;10.256;2023-05-07T11:57:44;26.50;91.30
33881;DHT22;20172;47.530;10.256;2023-05-07T12:00:10;26.60;91.50
33881;DHT22;20172;47.530;10.256;2023-05-07T12:02:36;26.60;91.20
33881;DHT22;20172;47.530;10.256;2023-05-07T12:05:01;26.70;91.80
33881;DHT22;20172;47.530;10.256;2023-05-07T12:07:27;26.70;91.40
33881;DHT22;20172;47.530;10.256;2023-05-07T12:09:53;26.80;91.70
33881;DHT22;20172;47.530;10.256;2023-05-07T12:12:18;26.90;91.10
33881;DHT22;20172;47.530;10.256;2023-05-07T12:14:45;26.90;90.40
33881;DHT22;20172;47.530;10.256;2023-05-07T12:17:11;26.90;91.80
33881;DHT22;20172;47.530;10.256;2023-05-07T12:19:38;26.90;91.70
33881;DHT22;20172;47.530;10.256;2023-05-07T12:22:04;26.90;91.60
33881;DHT22;20172;47.530;10.256;2023-05-07T12:27:11;27.10;91.00
33881;DHT22;20172;47.530;10.256;2023-05-07T12:29:36;27.40;92.00
33881;DHT22;20172;47.530;10.256;2023-05-07T12:32:05;27.40;91.30
33881;DHT22;20172;47.530;10.256;2023-05-07T12:34:31;27.50;91.50
33881;DHT22;20172;47.530;10.256;2023-05-07T12:36:56;27.60;90.90
33881;DHT22;20172;47.530;10.256;2023-05-07T12:39:22;27.60;90.50
33881;DHT22;20172;47.530;10.256;2023-05-07T12:41:54;27.90;91.20
33881;DHT22;20172;47.530;10.256;2023-05-07T12:44:23;28.00;87.60
33881;DHT22;20172;47.530;10.256;2023-05-07T12:46:49;27.90;88.80
33881;DHT22;20172;47.530;10.256;2023-05-07T12:49:15;27.70;88.20
33881;DHT22;20172;47.530;10.256;2023-05-07T12:51:40;27.50;89.30
33881;DHT22;20172;47.530;10.256;2023-05-07T12:54:06;27.40;89.80
33881;DHT22;20172;47.530;10.256;2023-05-07T12:56:31;27.20;90.60
33881;DHT22;20172;47.530;10.256;2023-05-07T12:59:00;27.10;90.70
33881;DHT22;20172;47.530;10.256;2023-05-07T13:01:29;26.90;91.20
33881;DHT22;20172;47.530;10.256;2023-05-07T13:03:56;26.70;90.80
33881;DHT22;20172;47.530;10.256;2023-05-07T13:06:25;26.70;89.40
33881;DHT22;20172;47.530;10.256;2023-05-07T13:08:51;26.60;89.00
33881;DHT22;20172;47.530;10.256;2023-05-07T13:11:17;26.60;90.90
33881;DHT22;20172;47.530;10.256;2023-05-07T13:13:42;26.40;91.10
33881;DHT22;20172;47.530;10.256;2023-05-07T13:16:09;26.20;90.70
33881;DHT22;20172;47.530;10.256;2023-05-07T13:18:35;26.00;91.60
33881;DHT22;20172;47.530;10.256;2023-05-07T13:21:01;26.00;91.60
33881;DHT22;20172;47.530;10.256;2023-05-07T13:23:27;26.00;91.70
33881;DHT22;20172;47.530;10.256;2023-05-07T13:25:52;25.90;92.30
33881;DHT22;20172;47.530;10.256;2023-05-07T13:28:19;25.80;91.80
33881;DHT22;20172;47.530;10.256;2023-05-07T13:30:45;25.60;92.40
33881;DHT22;20172;47.530;10.256;2023-05-07T13:33:11;25.40;93.60
33881;DHT22;20172;47.530;10.256;2023-05-07T13:35:37;25.30;93.30
33881;DHT22;20172;47.530;10.256;2023-05-07T13:38:03;25.20;92.90
33881;DHT22;20172;47.530;10.256;2023-05-07T13:40:28;25.10;93.10
33881;DHT22;20172;47.530;10.256;2023-05-07T13:42:56;25.00;93.40
33881;DHT22;20172;47.530;10.256;2023-05-07T13:45:22;25.00;93.20
33881;DHT22;20172;47.530;10.256;2023-05-07T13:47:51;25.00;93.60
33881;DHT22;20172;47.530;10.256;2023-05-07T13:50:16;25.00;93.90
33881;DHT22;20172;47.530;10.256;2023-05-07T13:52:42;25.00;94.00
33881;DHT22;20172;47.530;10.256;2023-05-07T13:55:09;24.90;94.40
33881;DHT22;20172;47.530;10.256;2023-05-07T13:57:35;25.00;94.90
33881;DHT22;20172;47.530;10.256;2023-05-07T14:00:01;25.00;95.30
33881;DHT22;20172;47.530;10.256;2023-05-07T14:02:27;25.20;95.20
33881;DHT22;20172;47.530;10.256;2023-05-07T14:04:52;25.40;95.20
33881;DHT22;20172;47.530;10.256;2023-05-07T14:07:18;25.60;95.20
33881;DHT22;20172;47.530;10.256;2023-05-07T14:09:43;25.80;95.00
33881;DHT22;20172;47.530;10.256;2023-05-07T14:12:10;25.70;94.20
33881;DHT22;20172;47.530;10.256;2023-05-07T14:14:36;25.60;94.90
33881;DHT22;20172;47.530;10.256;2023-05-07T14:17:01;25.40;94.90
33881;DHT22;20172;47.530;10.256;2023-05-07T14:19:27;25.10;94.70
33881;DHT22;20172;47.530;10.256;2023-05-07T14:21:52;24.90;94.70
33881;DHT22;20172;47.530;10.256;2023-05-07T14:24:18;24.50;94.80
33881;DHT22;20172;47.530;10.256;2023-05-07T14:26:44;24.30;95.30
33881;DHT22;20172;47.530;10.256;2023-05-07T14:29:10;24.00;94.10
33881;DHT22;20172;47.530;10.256;2023-05-07T14:31:36;23.80;93.60
33881;DHT22;20172;47.530;10.256;2023-05-07T14:34:01;23.50;93.30
33881;DHT22;20172;47.530;10.256;2023-05-07T14:36:27;23.30;93.10
33881;DHT22;20172;47.530;10.256;2023-05-07T14:38:53;23.10;94.20
33881;DHT22;20172;47.530;10.256;2023-05-07T14:41:24;23.00;94.70
33881;DHT22;20172;47.530;10.256;2023-05-07T14:43:49;22.90;96.00
33881;DHT22;20172;47.530;10.256;2023-05-07T14:46:18;22.80;96.60
33881;DHT22;20172;47.530;10.256;2023-05-07T14:48:44;22.70;96.80
33881;DHT22;20172;47.530;10.256;2023-05-07T14:51:10;22.70;96.70
33881;DHT22;20172;47.530;10.256;2023-05-07T14:53:36;22.70;97.30
33881;DHT22;20172;47.530;10.256;2023-05-07T14:56:02;22.70;97.50
33881;DHT22;20172;47.530;10.256;2023-05-07T14:58:30;22.70;97.10
33881;DHT22;20172;47.530;10.256;2023-05-07T15:00:56;22.50;96.50
33881;DHT22;20172;47.530;10.256;2023-05-07T15:03:21;22.20;97.40
33881;DHT22;20172;47.530;10.256;2023-05-07T15:05:47;22.00;98.60
33881;DHT22;20172;47.530;10.256;2023-05-07T15:08:12;21.80;99.80
33881;DHT22;20172;47.530;10.256;2023-05-07T15:10:38;21.60;99.90
33881;DHT22;20172;47.530;10.256;2023-05-07T15:13:06;21.30;99.90
33881;DHT22;20172;47.530;10.256;2023-05-07T15:15:32;21.10;99.90
33881;DHT22;20172;47.530;10.256;2023-05-07T15:17:58;21.00;99.90
33881;DHT22;20172;47.530;10.256;2023-05-07T15:20:25;20.90;99.90
33881;DHT22;20172;47.530;10.256;2023-05-07T15:22:51;20.80;99.90